Time;durP1;ratioP1;P1;durP2;ratioP2;P2;SDS_P1;SDS_P2;PMS_P1;PMS_P2;Temp;Humidity;BMP_temperature;BMP_pressure;BME280_temperature;BME280_humidity;BME280_pressure;Samples;Min_cycle;Max_cycle;Signal;HPM_P1;HPM_P2
2024/03/03 00:02:14;;;;;;;18.10;8.25;;;;;;;8.48;100.00;100031.72;6227893;28;20362;-76
2024/03/03 00:05:16;;;;;;;17.45;8.32;;;;;;;8.43;100.00;100028.50;6227986;28;20419;-76
2024/03/03 00:08:17;;;;;;;17.77;8.63;;;;;;;8.40;100.00;100016.44;6227542;28;20060;-76
2024/03/03 00:11:20;;;;;;;20.70;8.05;;;;;;;8.35;100.00;100023.66;6228089;28;20057;-75
2024/03/03 00:14:21;;;;;;;17.67;7.18;;;;;;;8.32;100.00;100022.06;6227562;28;20046;-75
2024/03/03 00:17:23;;;;;;;22.65;8.55;;;;;;;8.20;100.00;100016.66;6228091;28;20144;-75
2024/03/03 00:20:24;;;;;;;22.02;9.40;;;;;;;8.21;100.00;100019.19;6227315;28;20344;-75
2024/03/03 00:23:26;;;;;;;22.77;9.10;;;;;;;8.19;100.00;100018.44;6227925;28;20042;-75
2024/03/03 00:26:30;;;;;;;21.90;9.95;;;;;;;8.17;100.00;100011.59;6227540;28;20065;-75
2024/03/03 00:29:32;;;;;;;22.45;9.30;;;;;;;8.24;100.00;100018.19;6227532;28;20053;-75
2024/03/03 00:32:33;;;;;;;20.58;9.25;;;;;;;8.22;100.00;100012.19;6228009;28;20054;-75
2024/03/03 00:35:34;;;;;;;22.83;9.77;;;;;;;8.21;100.00;100024.44;6227265;28;20046;-76
2024/03/03 00:38:37;;;;;;;20.85;8.85;;;;;;;8.19;100.00;100017.59;6227065;28;20080;-76
2024/03/03 00:41:39;;;;;;;24.63;10.38;;;;;;;8.17;100.00;100014.22;6226926;28;20347;-76
2024/03/03 00:44:41;;;;;;;16.48;8.32;;;;;;;8.20;100.00;100017.50;6226950;28;20046;-75
2024/03/03 00:47:44;;;;;;;21.15;8.73;;;;;;;8.23;100.00;100016.50;6227193;28;20045;-75
2024/03/03 00:50:45;;;;;;;21.05;9.27;;;;;;;8.13;100.00;100021.41;6226593;28;20049;-75
2024/03/03 00:53:46;;;;;;;19.48;8.88;;;;;;;8.14;100.00;100018.69;6226895;28;20049;-75
2024/03/03 00:56:49;;;;;;;22.35;8.52;;;;;;;8.13;100.00;100017.03;6226749;28;20057;-76
2024/03/03 00:59:51;;;;;;;23.45;10.00;;;;;;;8.13;100.00;100016.19;6226179;28;20050;-74
2024/03/03 01:02:52;;;;;;;21.40;9.75;;;;;;;8.12;100.00;100019.69;6227042;28;20053;-75
2024/03/03 01:05:53;;;;;;;25.27;10.07;;;;;;;8.07;100.00;100006.88;6226393;28;20054;-76
2024/03/03 01:08:55;;;;;;;24.40;11.13;;;;;;;8.03;100.00;100004.50;6226596;28;20049;-75
2024/03/03 01:11:57;;;;;;;22.65;10.50;;;;;;;8.04;100.00;100009.69;6226111;28;20049;-75
2024/03/03 01:14:58;;;;;;;27.08;10.60;;;;;;;8.02;100.00;100002.81;6226126;28;20359;-75
2024/03/03 01:18:00;;;;;;;20.77;9.50;;;;;;;7.98;100.00;100007.38;6226560;28;20046;-75
2024/03/03 01:21:01;;;;;;;22.33;10.25;;;;;;;8.00;100.00;100008.16;6226022;28;20659;-76
2024/03/03 01:24:03;;;;;;;19.85;8.80;;;;;;;7.98;100.00;100011.75;6226487;28;20042;-76
2024/03/03 01:27:06;;;;;;;24.65;9.88;;;;;;;7.93;100.00;100016.41;6226574;28;20054;-75
2024/03/03 01:30:07;;;;;;;23.23;10.13;;;;;;;7.85;100.00;100014.19;6225925;28;20053;-75
2024/03/03 01:33:09;;;;;;;22.23;9.05;;;;;;;7.79;100.00;100015.38;6226147;28;20351;-75
2024/03/03 01:36:11;;;;;;;28.23;11.18;;;;;;;7.77;100.00;100019.00;6226114;28;20054;-76
2024/03/03 01:39:13;;;;;;;20.77;9.57;;;;;;;7.74;100.00;100013.94;6225691;28;20140;-75
2024/03/03 01:42:15;;;;;;;29.60;11.02;;;;;;;7.70;100.00;100015.88;6226097;28;20049;-75
2024/03/03 01:45:22;;;;;;;23.55;9.15;;;;;;;7.66;100.00;100011.72;6225826;28;20070;-74
2024/03/03 01:48:24;;;;;;;25.90;10.00;;;;;;;7.65;100.00;100003.97;6226208;28;20098;-72
2024/03/03 01:51:26;;;;;;;28.40;9.88;;;;;;;7.60;100.00;100001.59;6226096;28;20057;-72
2024/03/03 01:54:28;;;;;;;22.70;9.80;;;;;;;7.62;100.00;100004.97;6226036;28;20057;-72
2024/03/03 01:57:31;;;;;;;23.00;9.90;;;;;;;7.65;100.00;100003.97;6225869;28;20461;-72
2024/03/03 02:00:34;;;;;;;26.95;11.43;;;;;;;7.63;100.00;100001.44;6225214;28;20342;-73
2024/03/03 02:03:36;;;;;;;28.27;10.82;;;;;;;7.61;100.00;100011.97;6225838;28;20145;-73
2024/03/03 02:06:41;;;;;;;25.08;9.80;;;;;;;7.63;100.00;100014.53;6225428;28;20057;-72
2024/03/03 02:09:44;;;;;;;25.42;9.88;;;;;;;7.58;100.00;100012.13;6225530;28;20058;-73
2024/03/03 02:12:46;;;;;;;22.33;8.77;;;;;;;7.56;100.00;100018.38;6225765;28;20057;-73
2024/03/03 02:15:48;;;;;;;25.10;10.73;;;;;;;7.51;100.00;100017.78;6225570;28;20459;-73
2024/03/03 02:18:49;;;;;;;21.70;9.68;;;;;;;7.53;100.00;100023.75;6225142;28;20057;-73
2024/03/03 02:21:52;;;;;;;21.27;9.80;;;;;;;7.49;100.00;100020.44;6295129;23;20536;-75
2024/03/03 02:24:53;;;;;;;24.60;10.13;;;;;;;7.47;100.00;100022.31;6304242;28;20040;-74
2024/03/03 02:27:55;;;;;;;28.85;11.30;;;;;;;7.45;100.00;100016.31;6304735;28;20049;-74
2024/03/03 02:30:56;;;;;;;32.22;10.60;;;;;;;7.43;100.00;100012.09;6303851;28;20056;-74
2024/03/03 02:33:57;;;;;;;28.77;11.52;;;;;;;7.42;100.00;100019.09;6304229;28;20416;-74
2024/03/03 02:37:00;;;;;;;23.85;10.38;;;;;;;7.37;100.00;100018.50;6304375;28;20044;-74
2024/03/03 02:40:03;;;;;;;28.40;11.68;;;;;;;7.33;100.00;100019.56;6303973;28;20432;-74
2024/03/03 02:43:06;;;;;;;30.40;9.95;;;;;;;7.35;100.00;100013.31;6303143;28;20076;-74
2024/03/03 02:46:07;;;;;;;33.03;11.85;;;;;;;7.31;100.00;100009.19;6286935;28;20387;-74
2024/03/03 02:49:08;;;;;;;28.85;11.50;;;;;;;7.31;100.00;100009.19;6286898;28;20053;-74
2024/03/03 02:52:11;;;;;;;25.58;10.48;;;;;;;7.25;100.00;100017.34;6279147;28;20061;-74
2024/03/03 02:55:13;;;;;;;28.45;10.85;;;;;;;7.24;100.00;100009.59;6286892;28;20459;-74
2024/03/03 02:58:14;;;;;;;28.40;11.27;;;;;;;7.17;100.00;100009.03;6295694;28;20131;-74
2024/03/03 03:01:15;;;;;;;28.52;11.75;;;;;;;7.16;100.00;100006.53;6303460;28;20346;-74
2024/03/03 03:04:17;;;;;;;32.08;11.90;;;;;;;7.13;100.00;100018.00;6303288;28;20060;-76
2024/03/03 03:07:19;;;;;;;28.67;12.25;;;;;;;7.09;100.00;100012.06;6303529;28;20314;-76
2024/03/03 03:10:22;;;;;;;37.33;13.63;;;;;;;7.14;100.00;100004.00;6302916;28;20368;-76
2024/03/03 03:13:23;;;;;;;33.28;12.75;;;;;;;7.11;100.00;100002.38;6303611;28;20094;-76
2024/03/03 03:16:25;;;;;;;32.03;11.07;;;;;;;7.10;100.00;100005.91;6303061;28;20055;-75
2024/03/03 03:19:28;;;;;;;27.65;11.95;;;;;;;7.06;100.00;100008.75;6302939;28;20049;-76
2024/03/03 03:22:31;;;;;;;29.15;11.45;;;;;;;7.02;100.00;100017.66;6302941;28;20055;-76
2024/03/03 03:25:32;;;;;;;31.90;12.35;;;;;;;7.03;100.00;100011.50;6302992;28;20049;-76
2024/03/03 03:28:34;;;;;;;26.95;10.80;;;;;;;7.03;100.00;100019.34;6302772;28;20049;-76
2024/03/03 03:31:35;;;;;;;36.83;13.57;;;;;;;6.91;100.00;100015.59;6279496;28;20072;-76
2024/03/03 03:34:36;;;;;;;29.85;12.93;;;;;;;6.95;100.00;100018.88;6277202;28;20048;-76
2024/03/03 03:37:39;;;;;;;35.65;11.75;;;;;;;7.01;100.00;100022.06;6282150;28;20064;-76
2024/03/03 03:40:40;;;;;;;35.10;14.00;;;;;;;6.93;100.00;100023.34;6285706;28;20051;-76
2024/03/03 03:43:41;;;;;;;31.50;12.27;;;;;;;6.98;100.00;100023.97;6277480;28;20433;-75
2024/03/03 03:46:43;;;;;;;30.23;12.45;;;;;;;6.94;100.00;100023.25;6280428;28;20048;-76
2024/03/03 03:49:45;;;;;;;29.70;12.63;;;;;;;6.90;100.00;100021.72;6277002;28;20041;-74
2024/03/03 03:52:47;;;;;;;28.98;10.98;;;;;;;6.91;100.00;100033.03;6277548;28;20053;-76
2024/03/03 03:55:49;;;;;;;37.88;13.77;;;;;;;6.87;100.00;100024.50;6277150;28;20056;-76
2024/03/03 03:58:50;;;;;;;34.58;12.52;;;;;;;6.83;100.00;100030.81;6276601;28;20052;-76
2024/03/03 04:01:52;;;;;;;36.83;13.13;;;;;;;6.78;100.00;100036.25;6277291;28;20057;-76
2024/03/03 04:04:53;;;;;;;30.45;12.57;;;;;;;6.79;100.00;100032.72;6276767;28;20073;-73
2024/03/03 04:07:56;;;;;;;33.85;13.82;;;;;;;6.79;100.00;100039.72;6277310;28;20449;-76
2024/03/03 04:10:58;;;;;;;33.58;13.90;;;;;;;6.81;100.00;100033.50;6276303;28;20056;-75
2024/03/03 04:14:00;;;;;;;32.03;12.85;;;;;;;6.80;100.00;100028.34;6276689;28;20353;-76
2024/03/03 04:17:01;;;;;;;41.13;15.35;;;;;;;6.77;100.00;100026.75;6292306;28;20053;-75
2024/03/03 04:20:05;;;;;;;38.38;13.95;;;;;;;6.79;100.00;100030.09;6301382;28;20131;-76
2024/03/03 04:23:07;;;;;;;34.80;13.30;;;;;;;6.79;100.00;100031.88;6301705;28;20391;-76
2024/03/03 04:26:09;;;;;;;37.75;13.68;;;;;;;6.76;100.00;100032.00;6301532;28;20055;-76
2024/03/03 04:29:11;;;;;;;37.92;11.25;;;;;;;6.73;100.00;100035.63;6301300;28;20175;-75
2024/03/03 04:32:12;;;;;;;32.63;12.15;;;;;;;6.71;100.00;100032.25;6301690;28;20045;-76
2024/03/03 04:35:14;;;;;;;34.70;12.82;;;;;;;6.73;100.00;100025.19;6300954;28;20102;-76
2024/03/03 04:38:16;;;;;;;38.63;13.98;;;;;;;6.74;100.00;100029.50;6301066;28;20608;-76
2024/03/03 04:41:20;;;;;;;31.42;12.25;;;;;;;6.74;100.00;100026.03;6300805;28;20128;-76
2024/03/03 04:44:21;;;;;;;33.20;13.23;;;;;;;6.76;100.00;100029.41;6297757;28;20045;-76
2024/03/03 04:47:22;;;;;;;29.13;12.00;;;;;;;6.75;100.00;100023.34;6294296;28;20348;-74
2024/03/03 04:50:24;;;;;;;38.97;14.35;;;;;;;6.71;100.00;100024.41;6292141;28;20048;-75
2024/03/03 04:53:26;;;;;;;38.83;15.23;;;;;;;6.67;100.00;100025.47;6301085;28;20055;-75
2024/03/03 04:56:28;;;;;;;33.28;13.23;;;;;;;6.68;100.00;100024.56;6292184;28;20052;-76
2024/03/03 04:59:30;;;;;;;35.58;12.77;;;;;;;6.67;100.00;100029.84;6300577;28;20063;-76
2024/03/03 05:02:32;;;;;;;35.83;14.07;;;;;;;6.63;100.00;100036.13;6300759;28;20055;-76
2024/03/03 05:05:34;;;;;;;37.42;13.57;;;;;;;6.56;100.00;100022.56;6300272;28;20436;-76
2024/03/03 05:08:37;;;;;;;35.95;13.25;;;;;;;6.57;100.00;100026.84;6300526;28;20048;-75
2024/03/03 05:11:38;;;;;;;31.80;12.43;;;;;;;6.26;100.00;100027.47;6300443;28;20059;-75
2024/03/03 05:14:40;;;;;;;32.80;13.00;;;;;;;6.28;100.00;100029.09;6300556;28;20052;-75
2024/03/03 05:17:41;;;;;;;31.77;12.82;;;;;;;6.23;100.00;100033.69;6300475;28;20048;-75
2024/03/03 05:20:42;;;;;;;36.83;13.73;;;;;;;6.38;100.00;100039.94;6299960;28;20048;-75
2024/03/03 05:23:45;;;;;;;39.30;12.43;;;;;;;6.41;100.00;100038.97;6300463;28;20052;-75
2024/03/03 05:26:46;;;;;;;35.55;13.77;;;;;;;6.42;100.00;100035.44;6300330;28;20056;-76
2024/03/03 05:29:48;;;;;;;31.45;13.48;;;;;;;6.42;100.00;100032.81;6299769;28;20052;-75
2024/03/03 05:32:49;;;;;;;39.72;14.25;;;;;;;6.42;100.00;100038.88;6300429;28;20055;-75
2024/03/03 05:35:50;;;;;;;38.53;14.98;;;;;;;6.40;100.00;100038.09;6300122;28;20055;-74
2024/03/03 05:38:53;;;;;;;27.70;13.45;;;;;;;6.39;100.00;100038.16;6299642;28;20053;-75
2024/03/03 05:41:54;;;;;;;38.33;14.95;;;;;;;6.40;100.00;100035.47;6299865;28;20450;-75
2024/03/03 05:44:56;;;;;;;33.63;14.73;;;;;;;6.38;100.00;100036.47;6299812;28;20044;-73
2024/03/03 05:47:58;;;;;;;33.28;12.82;;;;;;;6.34;100.00;100031.41;6300453;28;20574;-72
2024/03/03 05:50:59;;;;;;;41.08;14.18;;;;;;;6.25;100.00;100029.22;6299748;28;20052;-75
2024/03/03 05:54:02;;;;;;;33.53;13.27;;;;;;;6.15;100.00;100032.34;6299781;28;20345;-75
2024/03/03 05:57:04;;;;;;;39.47;14.13;;;;;;;6.16;100.00;100037.47;6304840;28;20049;-75
2024/03/03 06:00:06;;;;;;;32.75;13.20;;;;;;;6.21;100.00;100030.28;6307755;28;20044;-75
2024/03/03 06:03:07;;;;;;;39.45;13.75;;;;;;;6.18;100.00;100042.66;6303849;28;20045;-75
2024/03/03 06:06:10;;;;;;;42.25;14.10;;;;;;;6.18;100.00;100042.66;6306598;28;20044;-75
2024/03/03 06:09:13;;;;;;;38.63;13.15;;;;;;;6.16;100.00;100040.09;6304446;28;20059;-75
2024/03/03 06:12:15;;;;;;;36.08;12.40;;;;;;;6.18;100.00;100047.88;6304935;28;20067;-75
2024/03/03 06:15:17;;;;;;;38.47;15.13;;;;;;;6.23;100.00;100049.34;6307626;28;20057;-75
2024/03/03 06:18:18;;;;;;;32.28;12.82;;;;;;;6.25;100.00;100047.50;6299157;28;20053;-75
2024/03/03 06:21:19;;;;;;;35.67;14.13;;;;;;;6.28;100.00;100044.75;6307961;28;20456;-75
2024/03/03 06:24:22;;;;;;;36.33;14.65;;;;;;;6.33;100.00;100047.97;6307903;28;20052;-74
2024/03/03 06:27:23;;;;;;;36.03;13.80;;;;;;;6.34;100.00;100056.66;6308151;28;20436;-73
2024/03/03 06:30:25;;;;;;;41.78;14.88;;;;;;;6.33;100.00;100054.97;6307345;28;20048;-75
2024/03/03 06:33:27;;;;;;;41.95;15.25;;;;;;;6.31;100.00;100049.84;6307796;28;20041;-75
2024/03/03 06:36:28;;;;;;;39.72;14.10;;;;;;;6.33;100.00;100044.53;6307619;28;20182;-75
2024/03/03 06:39:31;;;;;;;38.08;14.00;;;;;;;6.33;100.00;100045.38;6305239;28;20051;-75
2024/03/03 06:42:33;;;;;;;40.00;14.75;;;;;;;6.38;100.00;100046.91;6296003;28;20056;-75
2024/03/03 06:45:35;;;;;;;40.40;14.45;;;;;;;6.37;100.00;100046.09;6298805;28;20043;-74
2024/03/03 06:48:36;;;;;;;38.47;14.90;;;;;;;6.36;100.00;100052.22;6295246;28;20365;-75
2024/03/03 06:51:38;;;;;;;39.80;14.85;;;;;;;6.40;100.00;100053.75;6290915;28;20092;-75
2024/03/03 06:54:41;;;;;;;39.80;14.95;;;;;;;6.43;100.00;100052.78;6297701;28;20135;-74
2024/03/03 06:57:42;;;;;;;37.92;13.80;;;;;;;6.49;100.00;100050.69;6303457;28;20333;-75
2024/03/03 07:00:43;;;;;;;42.15;15.13;;;;;;;6.53;100.00;100052.25;6307120;28;20432;-74
2024/03/03 07:04:07;;;;;;;40.85;14.82;;;;;;;6.51;100.00;100051.50;6307798;28;20055;-75
2024/03/03 07:07:08;;;;;;;33.47;14.60;;;;;;;6.46;100.00;100048.25;6306826;28;20045;-75
2024/03/03 07:10:11;;;;;;;37.55;15.20;;;;;;;6.61;100.00;100050.13;6302633;28;20051;-75
2024/03/03 07:13:13;;;;;;;42.78;15.90;;;;;;;6.62;100.00;100053.56;6303534;28;20049;-75
2024/03/03 07:16:14;;;;;;;44.67;15.25;;;;;;;6.69;100.00;100047.16;6303096;28;20044;-75
2024/03/03 07:19:16;;;;;;;46.72;14.55;;;;;;;6.81;100.00;100050.91;6302825;28;20071;-75
2024/03/03 07:22:17;;;;;;;40.05;14.60;;;;;;;6.73;100.00;100046.09;6295998;28;20051;-75
2024/03/03 07:25:20;;;;;;;46.00;15.40;;;;;;;6.75;100.00;100043.38;6281719;28;20144;-75
2024/03/03 07:28:21;;;;;;;37.90;14.93;;;;;;;6.71;100.00;100040.06;6290997;28;20056;-75
2024/03/03 07:31:23;;;;;;;39.35;16.08;;;;;;;6.77;100.00;100038.94;6292237;28;20049;-75
2024/03/03 07:34:24;;;;;;;41.65;14.43;;;;;;;6.84;100.00;100042.94;6299695;28;20044;-76
2024/03/03 07:37:26;;;;;;;40.05;15.15;;;;;;;6.90;100.00;100036.56;6296641;28;20360;-77
2024/03/03 07:40:35;;;;;;;39.35;15.00;;;;;;;6.92;100.00;100026.91;6296422;28;20068;-75
2024/03/03 07:43:37;;;;;;;43.80;15.20;;;;;;;7.01;100.00;100029.88;6287051;28;20127;-81
2024/03/03 07:46:38;;;;;;;37.33;14.63;;;;;;;7.04;100.00;100028.88;6294625;28;20048;-75
2024/03/03 07:49:41;;;;;;;40.80;16.13;;;;;;;7.15;100.00;100031.81;6285402;28;20349;-74
2024/03/03 07:52:42;;;;;;;41.90;15.02;;;;;;;7.14;100.00;100027.50;6277510;28;20049;-74
2024/03/03 07:55:45;;;;;;;50.65;17.20;;;;;;;7.19;100.00;100027.28;6277593;28;20041;-75
2024/03/03 07:58:47;;;;;;;45.13;16.75;;;;;;;7.24;100.00;100015.66;6276818;28;20055;-75
2024/03/03 08:01:49;;;;;;;45.72;16.60;;;;;;;7.37;100.00;100010.66;6277613;28;20056;-74
2024/03/03 08:04:53;;;;;;;54.63;16.55;;;;;;;7.37;100.00;100010.66;6277659;28;20045;-74
2024/03/03 08:07:54;;;;;;;47.15;16.50;;;;;;;7.45;100.00;100010.22;6277459;28;20049;-75
2024/03/03 08:10:57;;;;;;;38.58;15.60;;;;;;;7.52;100.00;100011.59;6277455;28;20056;-75
2024/03/03 08:13:58;;;;;;;39.38;14.85;;;;;;;7.58;100.00;100009.50;6277372;28;20319;-75
2024/03/03 08:16:59;;;;;;;47.15;15.98;;;;;;;7.58;100.00;100006.88;6277437;28;20041;-75
2024/03/03 08:20:01;;;;;;;44.78;15.85;;;;;;;7.67;100.00;100016.00;6276391;28;20052;-74
2024/03/03 08:23:02;;;;;;;37.15;15.75;;;;;;;7.72;100.00;100014.03;6274504;22;20041;-75
2024/03/03 08:26:05;;;;;;;43.63;16.40;;;;;;;7.74;100.00;100016.56;6240750;28;20430;-75
2024/03/03 08:29:08;;;;;;;40.53;14.75;;;;;;;7.78;100.00;100013.69;6227255;28;20084;-75
2024/03/03 08:32:09;;;;;;;38.10;16.00;;;;;;;7.83;100.00;100013.44;6243591;28;20049;-76
2024/03/03 08:35:10;;;;;;;38.28;15.52;;;;;;;7.94;100.00;100012.84;6252352;28;20049;-75
2024/03/03 08:38:12;;;;;;;39.25;15.65;;;;;;;8.02;100.00;100021.97;6252184;28;20049;-76
2024/03/03 08:41:15;;;;;;;47.42;16.38;;;;;;;8.09;100.00;100022.50;6251620;28;20052;-76
2024/03/03 08:44:16;;;;;;;44.67;15.05;;;;;;;8.18;100.00;100024.63;6251708;28;20053;-75
2024/03/03 08:47:18;;;;;;;49.35;16.58;;;;;;;8.24;100.00;100029.50;6250817;28;20052;-76
2024/03/03 08:50:21;;;;;;;45.08;16.25;;;;;;;8.35;100.00;100026.28;6251360;28;20045;-75
2024/03/03 08:53:22;;;;;;;41.00;15.75;;;;;;;8.43;100.00;100031.97;6251608;28;20186;-75
2024/03/03 08:56:24;;;;;;;35.05;14.20;;;;;;;8.47;100.00;100033.50;6251549;28;20052;-75
2024/03/03 08:59:26;;;;;;;40.08;16.67;;;;;;;8.50;100.00;100028.09;6250932;28;20362;-75
2024/03/03 09:02:27;;;;;;;41.47;15.07;;;;;;;8.52;100.00;100026.22;6251374;28;20433;-76
2024/03/03 09:05:29;;;;;;;48.25;16.15;;;;;;;8.52;100.00;100015.75;6251079;28;20057;-75
2024/03/03 09:08:30;;;;;;;39.30;16.95;;;;;;;8.61;100.00;100027.47;6250597;28;20045;-76
2024/03/03 09:11:33;;;;;;;38.33;15.35;;;;;;;8.72;100.00;100025.09;6251192;28;20089;-76
2024/03/03 09:14:34;;;;;;;48.78;17.70;;;;;;;8.76;100.00;100021.34;6250733;28;20057;-76
2024/03/03 09:17:36;;;;;;;40.13;16.25;;;;;;;8.90;100.00;100020.56;6251345;28;20052;-76
2024/03/03 09:20:37;;;;;;;36.90;15.40;;;;;;;8.97;100.00;100026.28;6250200;28;20049;-75
2024/03/03 09:23:39;;;;;;;39.03;16.25;;;;;;;9.04;100.00;100025.88;6251129;28;20058;-75
2024/03/03 09:26:42;;;;;;;41.92;16.13;;;;;;;9.15;100.00;100022.59;6250608;28;20053;-75
2024/03/03 09:29:43;;;;;;;43.58;16.55;;;;;;;9.22;100.00;100026.56;6250451;28;20049;-75
2024/03/03 09:32:44;;;;;;;41.70;17.10;;;;;;;9.28;100.00;100038.44;6250297;28;20354;-75
2024/03/03 09:35:45;;;;;;;50.70;17.15;;;;;;;9.44;100.00;100033.13;6250520;28;20041;-76
2024/03/03 09:38:47;;;;;;;44.95;18.08;;;;;;;9.47;100.00;100030.31;6250308;28;20057;-76
2024/03/03 09:41:56;;;;;;;44.63;16.77;;;;;;;9.49;100.00;100026.66;6250524;28;20185;-75
2024/03/03 09:45:04;;;;;;;42.70;16.98;;;;;;;9.61;100.00;100035.56;6250497;28;20056;-75
2024/03/03 09:48:08;;;;;;;40.95;16.73;;;;;;;9.66;100.00;100029.09;6250507;28;20050;-75
2024/03/03 09:51:12;;;;;;;44.72;17.50;;;;;;;9.74;100.00;100031.28;6249967;28;20381;-75
2024/03/03 09:54:14;;;;;;;43.00;16.98;;;;;;;9.77;100.00;100019.75;6250113;28;20050;-75
2024/03/03 09:57:18;;;;;;;34.55;16.23;;;;;;;9.80;100.00;100020.38;6250896;28;20046;-75
2024/03/03 10:00:19;;;;;;;43.75;17.15;;;;;;;9.84;100.00;100015.78;6249971;28;20049;-75
2024/03/03 10:03:24;;;;;;;37.30;17.00;;;;;;;9.97;100.00;100027.22;6250572;28;20061;-76
2024/03/03 10:06:27;;;;;;;41.45;18.05;;;;;;;10.09;100.00;100023.00;6250036;28;20056;-75
2024/03/03 10:09:30;;;;;;;37.00;15.88;;;;;;;10.16;100.00;100019.03;6250174;28;20049;-76
2024/03/03 10:12:34;;;;;;;38.30;16.60;;;;;;;10.29;100.00;100022.59;6250230;28;20469;-76
2024/03/03 10:15:37;;;;;;;47.47;18.23;;;;;;;10.38;100.00;100021.16;6250230;28;20053;-76
2024/03/03 10:18:38;;;;;;;41.92;17.48;;;;;;;10.45;100.00;100032.13;6249759;28;20050;-75
2024/03/03 10:21:40;;;;;;;38.45;16.65;;;;;;;10.55;100.00;100020.09;6250261;28;20054;-75
2024/03/03 10:24:41;;;;;;;35.38;15.68;;;;;;;10.63;100.00;100028.31;6249996;28;20050;-76
2024/03/03 10:27:45;;;;;;;37.33;15.82;;;;;;;10.61;100.00;100028.41;6249903;28;20354;-76
2024/03/03 10:30:46;;;;;;;43.83;16.02;;;;;;;10.69;100.00;100020.03;6249638;28;20045;-78
2024/03/03 10:33:54;;;;;;;39.53;16.50;;;;;;;10.81;100.00;100019.22;6249949;28;20056;-75
2024/03/03 10:37:01;;;;;;;41.40;16.98;;;;;;;10.92;100.00;100015.88;6249873;28;20053;-76
2024/03/03 10:40:05;;;;;;;52.75;17.75;;;;;;;11.09;100.00;100015.59;6249159;28;20435;-77
2024/03/03 10:43:07;;;;;;;43.38;17.00;;;;;;;11.16;100.00;100022.13;6250510;28;20067;-78
2024/03/03 10:46:10;;;;;;;38.15;16.63;;;;;;;11.32;100.00;100021.09;6254196;28;20052;-75
2024/03/03 10:49:13;;;;;;;41.92;17.88;;;;;;;11.46;100.00;100020.16;6254210;28;20089;-76
2024/03/03 10:52:14;;;;;;;39.55;16.30;;;;;;;11.53;100.00;100011.72;6254411;28;20053;-78
2024/03/03 10:55:16;;;;;;;41.40;16.98;;;;;;;11.61;100.00;100009.41;6254288;28;20452;-78
2024/03/03 10:58:21;;;;;;;38.97;16.58;;;;;;;11.69;100.00;100014.13;6253867;28;20457;-77
2024/03/03 11:01:22;;;;;;;39.63;16.67;;;;;;;11.84;100.00;100020.16;6254346;28;20083;-75
2024/03/03 11:04:29;;;;;;;38.25;17.00;;;;;;;11.90;100.00;100020.56;6253980;28;20049;-78
2024/03/03 11:07:33;;;;;;;44.83;18.13;;;;;;;11.97;100.00;100026.22;6254368;28;20053;-78
2024/03/03 11:10:35;;;;;;;47.75;17.45;;;;;;;12.08;100.00;100026.34;6253897;28;20422;-78
2024/03/03 11:13:43;;;;;;;45.83;16.90;;;;;;;12.18;100.00;100018.59;6253854;28;20449;-75
2024/03/03 11:16:49;;;;;;;41.97;17.70;;;;;;;12.38;100.00;100019.78;6253690;28;20050;-78
2024/03/03 11:19:51;;;;;;;33.13;16.90;;;;;;;12.50;100.00;100020.72;6253383;28;20053;-77
2024/03/03 11:23:04;;;;;;;36.95;17.23;;;;;;;12.54;100.00;100017.75;6253726;28;20437;-75
2024/03/03 11:26:16;;;;;;;40.20;15.73;;;;;;;12.74;100.00;100010.16;6253357;28;20124;-77
2024/03/03 11:29:21;;;;;;;34.13;16.25;;;;;;;12.84;100.00;100011.97;6253282;28;20053;-77
2024/03/03 11:32:25;;;;;;;38.13;17.48;;;;;;;12.90;100.00;100008.06;6253462;28;20111;-75
2024/03/03 11:35:28;;;;;;;46.70;17.65;;;;;;;12.94;100.00;100007.72;6253354;28;20056;-76
2024/03/03 11:38:41;;;;;;;41.80;17.58;;;;;;;13.14;100.00;100016.75;6252937;28;20442;-75
2024/03/03 11:41:43;;;;;;;39.88;16.88;;;;;;;13.24;100.00;99992.34;6253453;28;20099;-76
2024/03/03 11:44:50;;;;;;;36.90;16.75;;;;;;;13.42;100.00;99997.03;6252877;28;20056;-77
2024/03/03 11:47:51;;;;;;;35.17;15.15;;;;;;;13.50;100.00;99993.00;6253225;28;20060;-77
2024/03/03 11:51:23;;;;;;;34.03;16.23;;;;;;;13.67;100.00;99990.72;6252564;28;20339;-77
2024/03/03 11:54:31;;;;;;;34.90;16.73;;;;;;;13.68;100.00;99987.09;6252394;28;20053;-77
2024/03/03 11:57:33;;;;;;;39.90;17.27;;;;;;;13.73;100.00;99984.09;6253013;28;20055;-77
2024/03/03 12:00:35;;;;;;;37.05;15.55;;;;;;;13.78;100.00;99987.22;6252371;28;20056;-77
2024/03/03 12:03:37;;;;;;;38.90;15.52;;;;;;;13.89;100.00;99984.56;6252763;28;20354;-75
2024/03/03 12:06:42;;;;;;;32.67;15.18;;;;;;;13.92;100.00;99989.59;6252580;28;20045;-76
2024/03/03 12:09:44;;;;;;;31.70;15.63;;;;;;;14.03;100.00;99980.81;6252159;28;20045;-77
2024/03/03 12:12:46;;;;;;;31.88;14.95;;;;;;;14.01;100.00;99971.34;6252491;28;20187;-76
2024/03/03 12:15:51;;;;;;;33.58;14.98;;;;;;;13.82;100.00;99982.53;6252286;28;20115;-76
2024/03/03 12:18:53;;;;;;;33.80;15.32;;;;;;;13.94;100.00;99981.53;6252029;28;20454;-77
2024/03/03 12:21:55;;;;;;;39.00;15.73;;;;;;;13.96;100.00;99977.84;6252358;28;20049;-76
2024/03/03 12:24:58;;;;;;;32.55;15.43;;;;;;;13.58;100.00;99977.38;6252043;28;20438;-76
2024/03/03 12:28:00;;;;;;;28.13;13.98;;;;;;;13.49;100.00;99984.22;6252081;28;20342;-76
2024/03/03 12:31:03;;;;;;;32.45;14.75;;;;;;;13.33;100.00;99979.28;6251959;28;20164;-76
2024/03/03 12:34:05;;;;;;;34.20;15.80;;;;;;;13.16;100.00;99975.25;6251872;28;20477;-76
2024/03/03 12:37:06;;;;;;;30.63;14.18;;;;;;;13.12;100.00;99970.34;6252270;28;20128;-76
2024/03/03 12:40:09;;;;;;;31.05;13.98;;;;;;;13.05;100.00;99967.34;6251499;28;20056;-76
2024/03/03 12:43:14;;;;;;;33.50;14.63;;;;;;;13.11;100.00;99964.22;6251516;28;20361;-76
2024/03/03 12:46:17;;;;;;;34.70;14.98;;;;;;;13.40;100.00;99971.75;6251840;28;20046;-76
2024/03/03 12:49:18;;;;;;;33.20;14.82;;;;;;;13.76;100.00;99975.09;6250928;28;20465;-76
2024/03/03 12:52:20;;;;;;;34.60;14.90;;;;;;;13.92;100.00;99972.91;6251549;28;20060;-75
2024/03/03 12:55:25;;;;;;;30.38;14.38;;;;;;;14.15;100.00;99973.72;6251266;28;20062;-75
2024/03/03 12:58:27;;;;;;;30.80;15.35;;;;;;;14.42;100.00;99965.34;6251195;28;20115;-75
2024/03/03 13:01:29;;;;;;;25.40;12.95;;;;;;;14.78;100.00;99969.44;6251260;28;20052;-74
2024/03/03 13:04:31;;;;;;;30.25;12.98;;;;;;;14.61;100.00;99975.28;6251298;28;20045;-75
2024/03/03 13:07:32;;;;;;;27.20;12.55;;;;;;;14.37;100.00;99973.66;6250328;28;20056;-75
2024/03/03 13:10:35;;;;;;;27.27;13.52;;;;;;;14.20;100.00;99976.81;6250753;28;20053;-75
2024/03/03 13:13:36;;;;;;;26.98;12.25;;;;;;;13.99;100.00;99970.63;6251294;28;20046;-76
2024/03/03 13:16:39;;;;;;;25.92;12.38;;;;;;;13.91;100.00;99963.31;6250720;28;20371;-77
2024/03/03 13:19:44;;;;;;;27.38;13.25;;;;;;;13.70;100.00;99963.22;6250774;28;20064;-75
2024/03/03 13:22:46;;;;;;;27.13;12.75;;;;;;;13.53;100.00;99964.53;6250700;28;20056;-76
2024/03/03 13:25:47;;;;;;;23.70;11.30;;;;;;;13.63;100.00;99964.69;6250879;28;20053;-77
2024/03/03 13:28:49;;;;;;;29.23;12.35;;;;;;;13.54;100.00;99962.75;6250165;28;20045;-77
2024/03/03 13:31:52;;;;;;;27.35;12.13;;;;;;;13.50;100.00;99958.66;6251119;28;20401;-77
2024/03/03 13:34:53;;;;;;;29.17;12.52;;;;;;;13.52;100.00;99969.94;6250494;28;20356;-77
2024/03/03 13:37:54;;;;;;;25.15;11.90;;;;;;;13.69;100.00;99972.09;6250954;28;20046;-77
2024/03/03 13:40:56;;;;;;;25.30;11.43;;;;;;;13.80;100.00;99977.38;6250214;28;20049;-75
2024/03/03 13:43:57;;;;;;;24.85;12.80;;;;;;;14.08;100.00;99978.66;6251000;28;20456;-75
2024/03/03 13:47:00;;;;;;;28.02;13.10;;;;;;;14.05;100.00;99972.78;6250731;28;20052;-76
2024/03/03 13:50:01;;;;;;;30.77;11.57;;;;;;;14.12;100.00;99969.50;6250378;28;20053;-75